Time;durP1;ratioP1;P1;durP2;ratioP2;P2;SDS_P1;SDS_P2;PMS_P1;PMS_P2;Temp;Humidity;BMP_temperature;BMP_pressure;BME280_temperature;BME280_humidity;BME280_pressure;Samples;Min_cycle;Max_cycle;Signal;HPM_P1;HPM_P2
2023/06/01 00:01:32;;;;;;;12.18;8.23;;;;;;;16.54;79.00;95381.66;5034742;28;20029;-79
2023/06/01 00:03:59;;;;;;;20.95;8.70;;;;;;;16.36;78.14;95352.41;5034743;28;20040;-79
2023/06/01 00:06:28;;;;;;;16.67;8.18;;;;;;;16.61;77.80;95391.97;5034249;28;20097;-79
2023/06/01 00:08:54;;;;;;;18.38;8.60;;;;;;;16.58;78.58;95390.66;5033324;28;20041;-79
2023/06/01 00:11:21;;;;;;;15.13;8.27;;;;;;;15.90;78.75;95283.16;5034377;28;20035;-79
2023/06/01 00:13:48;;;;;;;18.35;9.25;;;;;;;16.46;78.50;95366.34;5034164;28;20041;-78
2023/06/01 00:16:13;;;;;;;16.10;9.35;;;;;;;16.40;79.28;95361.41;5034264;28;20033;-79
2023/06/01 00:18:39;;;;;;;19.15;9.00;;;;;;;16.37;78.74;95354.78;5030912;28;20039;-79
2023/06/01 00:21:05;;;;;;;14.32;8.18;;;;;;;16.43;78.12;95360.78;5051561;28;20037;-78
2023/06/01 00:23:31;;;;;;;26.00;8.52;;;;;;;16.39;77.88;95357.94;5033696;28;20032;-79
2023/06/01 00:25:57;;;;;;;15.82;8.80;;;;;;;16.37;77.40;95370.03;5033841;28;20150;-79
2023/06/01 00:28:22;;;;;;;17.48;9.00;;;;;;;16.43;77.17;95384.88;5033183;28;20025;-79
2023/06/01 00:30:48;;;;;;;16.75;8.65;;;;;;;16.31;77.26;95379.28;5052025;28;20120;-79
2023/06/01 00:33:13;;;;;;;19.25;8.73;;;;;;;16.08;78.18;95349.84;5051829;28;20035;-79
2023/06/01 00:35:39;;;;;;;19.58;8.63;;;;;;;16.11;78.66;95351.91;5051842;28;20440;-79
2023/06/01 00:38:06;;;;;;;17.92;9.68;;;;;;;16.07;79.01;95353.63;5033230;28;20037;-79
2023/06/01 00:40:32;;;;;;;19.77;8.10;;;;;;;16.06;77.89;95345.91;5052144;28;20016;-79
2023/06/01 00:42:58;;;;;;;20.00;8.80;;;;;;;16.20;77.97;95360.00;5051314;28;20108;-79
2023/06/01 00:45:23;;;;;;;20.35;9.65;;;;;;;16.35;78.26;95388.28;5051592;28;20063;-80
2023/06/01 00:47:49;;;;;;;14.23;8.63;;;;;;;16.37;78.25;95383.44;5051574;28;20029;-80
2023/06/01 00:50:14;;;;;;;16.00;9.10;;;;;;;16.19;77.63;95364.56;5033794;28;20525;-80
2023/06/01 00:52:40;;;;;;;16.48;9.10;;;;;;;16.21;77.11;95375.75;5033917;28;20032;-80
2023/06/01 00:55:06;;;;;;;19.52;9.15;;;;;;;15.97;76.86;95353.06;5033243;28;20129;-80
2023/06/01 00:57:33;;;;;;;16.50;9.10;;;;;;;16.07;76.80;95369.69;5035061;28;20485;-80
2023/06/01 00:59:58;;;;;;;19.23;9.50;;;;;;;16.09;76.78;95383.56;5031010;28;20048;-80
2023/06/01 01:02:24;;;;;;;22.52;8.73;;;;;;;16.10;76.91;95400.38;5014055;28;20033;-80
2023/06/01 01:04:52;;;;;;;17.70;8.40;;;;;;;15.90;77.43;95363.38;5051193;28;20029;-80
2023/06/01 01:07:47;;;;;;;16.55;9.25;;;;;;;16.00;78.06;95385.34;5033060;28;20098;-80
2023/06/01 01:10:28;;;;;;;18.73;10.00;;;;;;;16.07;78.21;95391.09;5032895;28;20115;-80
2023/06/01 01:13:05;;;;;;;13.27;8.60;;;;;;;16.07;77.67;95395.63;5033084;28;20423;-80
2023/06/01 01:16:33;;;;;;;16.42;9.63;;;;;;;15.96;77.70;95381.69;5033120;28;20028;-80
2023/06/01 01:19:24;;;;;;;12.40;8.15;;;;;;;16.02;77.80;95390.41;4984459;28;20121;-79
2023/06/01 01:21:57;;;;;;;;;;;;;;;16.00;78.10;95398.72;5016977;28;20443;-80
2023/06/01 01:25:03;;;;;;;13.98;7.90;;;;;;;15.99;78.42;95401.69;5032903;28;19916;-80
2023/06/01 01:27:53;;;;;;;16.75;6.95;;;;;;;15.99;78.11;95396.34;5033203;28;20032;-80
2023/06/01 01:30:21;;;;;;;13.48;8.13;;;;;;;15.84;77.42;95373.41;5032302;28;20087;-80
2023/06/01 01:32:50;;;;;;;16.85;8.52;;;;;;;15.67;77.14;95354.53;5032697;28;20029;-80
2023/06/01 01:35:16;;;;;;;14.60;8.20;;;;;;;15.90;77.14;95393.59;5050692;28;20465;-81
2023/06/01 01:37:55;;;;;;;14.05;7.22;;;;;;;15.87;76.89;95394.19;5050678;28;20090;-80
2023/06/01 01:40:21;;;;;;;13.70;7.13;;;;;;;15.72;76.53;95379.28;5032373;28;20067;-80
2023/06/01 01:42:48;;;;;;;14.90;6.90;;;;;;;15.70;76.30;95383.34;5032732;28;20060;-80
2023/06/01 01:45:15;;;;;;;12.23;7.72;;;;;;;15.77;76.32;95389.09;5017893;28;20033;-80
2023/06/01 01:47:48;;;;;;;15.85;7.47;;;;;;;15.61;76.05;95383.28;5028841;28;20124;-80
2023/06/01 01:50:18;;;;;;;14.20;6.57;;;;;;;15.51;76.24;95383.44;5031774;28;20549;-80
2023/06/01 01:52:45;;;;;;;11.20;7.80;;;;;;;15.67;77.08;95403.44;5049982;28;20128;-80
2023/06/01 01:55:12;;;;;;;11.38;6.72;;;;;;;15.47;77.80;95363.75;5050628;28;20035;-77
2023/06/01 01:57:39;;;;;;;14.80;7.88;;;;;;;15.58;78.10;95385.72;5052507;28;20059;-77
2023/06/01 02:00:07;;;;;;;13.73;7.70;;;;;;;15.55;78.24;95376.44;5052331;28;20143;-79
2023/06/01 02:02:33;;;;;;;10.55;8.10;;;;;;;15.66;78.45;95388.50;5031577;28;20078;-79
2023/06/01 02:04:59;;;;;;;18.23;7.45;;;;;;;15.70;77.54;95399.41;5031920;28;20029;-79
2023/06/01 02:07:25;;;;;;;12.57;7.38;;;;;;;15.67;76.92;95392.75;5038989;28;20029;-79
2023/06/01 02:09:50;;;;;;;11.30;7.63;;;;;;;15.73;76.84;95404.13;5024399;28;20037;-79
2023/06/01 02:12:16;;;;;;;12.52;7.50;;;;;;;15.60;76.81;95389.69;5049837;28;20028;-79
2023/06/01 02:14:41;;;;;;;14.10;8.88;;;;;;;15.24;76.40;95348.75;5031915;28;20414;-79
2023/06/01 02:17:07;;;;;;;17.38;7.70;;;;;;;14.88;77.15;95288.00;5031749;28;20025;-79
2023/06/01 02:19:33;;;;;;;14.57;7.82;;;;;;;15.42;77.62;95379.88;5049799;28;20033;-79
2023/06/01 02:21:58;;;;;;;15.07;7.90;;;;;;;15.63;77.41;95407.03;5049174;28;20037;-79
2023/06/01 02:24:24;;;;;;;11.13;7.70;;;;;;;15.50;77.23;95387.19;5050120;28;20101;-79
2023/06/01 02:26:53;;;;;;;15.82;8.38;;;;;;;15.36;77.71;95397.91;5030941;28;20037;-79
2023/06/01 02:29:21;;;;;;;18.10;8.00;;;;;;;15.44;78.38;95383.84;5031475;28;20029;-79
2023/06/01 02:31:47;;;;;;;20.80;9.27;;;;;;;15.58;77.25;95401.78;5053508;28;20036;-79
2023/06/01 02:34:13;;;;;;;18.75;9.35;;;;;;;15.27;76.74;95361.50;5038397;28;20055;-79
2023/06/01 02:36:38;;;;;;;20.58;9.52;;;;;;;15.04;76.79;95325.88;5056137;28;20103;-79
2023/06/01 02:39:04;;;;;;;16.00;9.00;;;;;;;15.55;77.86;95413.88;5056213;28;20036;-79
2023/06/01 02:41:29;;;;;;;16.08;8.95;;;;;;;15.40;78.21;95395.44;5028606;28;20030;-79
2023/06/01 02:43:55;;;;;;;16.45;9.13;;;;;;;15.24;77.60;95370.13;5028648;28;20044;-79
2023/06/01 02:46:20;;;;;;;20.05;10.45;;;;;;;15.55;78.26;95416.53;5038169;28;20037;-79
2023/06/01 02:48:46;;;;;;;15.95;10.35;;;;;;;15.43;77.60;95414.34;5038248;28;20120;-79
2023/06/01 02:51:11;;;;;;;18.80;9.75;;;;;;;15.31;77.76;95390.00;5056179;28;20690;-79
2023/06/01 02:53:39;;;;;;;20.65;11.20;;;;;;;15.37;77.73;95394.16;5037779;28;20043;-79
2023/06/01 02:56:05;;;;;;;52.40;17.27;;;;;;;15.24;78.83;95372.78;5038266;28;20098;-79
2023/06/01 02:58:31;;;;;;;26.92;13.32;;;;;;;15.44;79.83;95393.75;5038053;28;20056;-79
2023/06/01 03:00:57;;;;;;;27.90;13.13;;;;;;;15.45;79.47;95395.34;5037777;28;20029;-79
2023/06/01 03:03:24;;;;;;;72.82;15.73;;;;;;;15.42;79.25;95386.03;5037412;28;20215;-79
2023/06/01 03:05:50;;;;;;;37.75;15.43;;;;;;;15.58;79.73;95418.59;5037909;28;20032;-79
2023/06/01 03:08:16;;;;;;;23.20;14.63;;;;;;;15.59;79.79;95417.53;5056378;28;20048;-79
2023/06/01 03:10:42;;;;;;;26.48;14.20;;;;;;;15.58;80.28;95409.78;5056290;28;20037;-79
2023/06/01 03:13:08;;;;;;;33.22;14.48;;;;;;;15.51;80.23;95394.13;5055387;28;20051;-79
2023/06/01 03:15:33;;;;;;;27.45;13.98;;;;;;;15.53;80.15;95397.34;5037935;28;20029;-79
2023/06/01 03:17:59;;;;;;;28.08;15.30;;;;;;;15.58;80.44;95410.59;5056001;28;20033;-79
2023/06/01 03:20:24;;;;;;;28.90;15.38;;;;;;;15.66;80.37;95417.91;5055775;28;20036;-79
2023/06/01 03:22:50;;;;;;;27.80;15.93;;;;;;;15.50;80.96;95395.22;5055808;28;20037;-79
2023/06/01 03:25:16;;;;;;;29.98;17.48;;;;;;;15.62;80.82;95403.56;5037230;28;20474;-79
2023/06/01 03:27:42;;;;;;;30.27;16.45;;;;;;;15.69;80.02;95419.19;5055871;28;20398;-79
2023/06/01 03:30:09;;;;;;;29.05;15.23;;;;;;;15.75;79.55;95428.69;5037958;28;20029;-79
2023/06/01 03:32:42;;;;;;;32.28;16.00;;;;;;;15.64;79.53;95408.63;5037597;28;20116;-79
2023/06/01 03:35:08;;;;;;;33.50;17.05;;;;;;;15.74;79.53;95427.09;5018858;28;20396;-78
2023/06/01 03:37:39;;;;;;;34.70;18.13;;;;;;;15.77;79.98;95416.63;5035601;28;20064;-78
2023/06/01 03:40:10;;;;;;;32.10;17.35;;;;;;;15.70;79.68;95412.75;5037635;28;20052;-78
2023/06/01 03:42:40;;;;;;;27.60;16.67;;;;;;;15.72;80.12;95422.06;5036038;28;20029;-78
2023/06/01 03:45:06;;;;;;;37.67;17.33;;;;;;;15.59;80.61;95396.13;5052060;28;20108;-78
2023/06/01 03:47:33;;;;;;;30.60;17.15;;;;;;;15.79;80.92;95417.09;5051976;28;20100;-78
2023/06/01 03:49:58;;;;;;;29.90;15.95;;;;;;;15.60;80.37;95399.59;5034048;28;20080;-78
2023/06/01 03:52:25;;;;;;;35.67;16.58;;;;;;;15.54;80.58;95395.47;5025402;28;20061;-78
2023/06/01 03:54:51;;;;;;;28.35;15.85;;;;;;;15.68;80.23;95410.38;5014126;28;20037;-78
2023/06/01 03:57:16;;;;;;;40.42;16.30;;;;;;;15.70;80.71;95421.56;5014085;28;20088;-77
2023/06/01 03:59:42;;;;;;;25.63;16.20;;;;;;;15.78;80.65;95422.75;5014256;28;20651;-78
2023/06/01 04:02:09;;;;;;;23.67;14.75;;;;;;;15.95;80.59;95433.59;5014748;28;20120;-78
2023/06/01 04:04:35;;;;;;;26.35;16.90;;;;;;;16.00;80.26;95425.47;5028910;28;20487;-78
2023/06/01 04:07:02;;;;;;;24.25;14.02;;;;;;;15.74;79.39;95403.84;5034138;28;20041;-79
2023/06/01 04:09:29;;;;;;;20.63;13.60;;;;;;;15.76;79.70;95411.56;5033062;28;20052;-77
2023/06/01 04:11:55;;;;;;;17.45;13.05;;;;;;;15.87;79.29;95420.94;5030609;28;20029;-77
2023/06/01 04:14:20;;;;;;;27.60;15.40;;;;;;;15.95;79.05;95430.91;5030601;28;20422;-78
2023/06/01 04:16:46;;;;;;;26.58;15.38;;;;;;;15.94;79.50;95428.56;5031894;28;20051;-77
2023/06/01 04:19:12;;;;;;;23.77;15.75;;;;;;;15.96;79.80;95435.19;5027540;28;20040;-80
2023/06/01 04:21:37;;;;;;;21.75;16.08;;;;;;;15.85;80.42;95411.66;5033346;28;20043;-78
2023/06/01 04:24:03;;;;;;;27.13;18.15;;;;;;;15.95;81.03;95440.81;5038967;28;20530;-78
2023/06/01 04:26:31;;;;;;;30.48;18.08;;;;;;;16.07;80.51;95441.13;5017456;28;20032;-78
2023/06/01 04:28:57;;;;;;;38.63;18.60;;;;;;;16.04;80.55;95414.97;5031805;28;20090;-79
2023/06/01 04:31:23;;;;;;;33.47;18.77;;;;;;;16.10;80.91;95422.56;5017824;28;20063;-78
2023/06/01 04:33:52;;;;;;;29.35;18.05;;;;;;;16.29;80.77;95443.03;5020028;28;20057;-78
2023/06/01 04:36:24;;;;;;;26.17;16.60;;;;;;;15.91;79.31;95423.81;5023605;28;20752;-78
2023/06/01 04:38:53;;;;;;;26.23;16.55;;;;;;;16.21;78.97;95439.19;5020319;28;20032;-78
2023/06/01 04:41:27;;;;;;;28.67;17.77;;;;;;;16.29;79.47;95446.50;5041035;28;20064;-79
2023/06/01 04:43:52;;;;;;;36.53;18.23;;;;;;;16.01;80.59;95435.09;5022395;28;20033;-78
2023/06/01 04:46:26;;;;;;;28.45;17.15;;;;;;;15.52;79.57;95394.94;5045066;28;20090;-78
2023/06/01 04:48:52;;;;;;;23.20;15.93;;;;;;;15.98;79.46;95433.00;5021939;28;20470;-78
2023/06/01 04:51:23;;;;;;;33.63;16.77;;;;;;;15.98;79.75;95434.88;5014339;28;20037;-78
2023/06/01 04:53:51;;;;;;;25.33;16.70;;;;;;;16.12;79.33;95451.69;5038066;28;20064;-78
2023/06/01 04:56:26;;;;;;;29.33;16.95;;;;;;;16.07;79.53;95452.63;5026675;28;20076;-78
2023/06/01 04:58:53;;;;;;;36.03;18.42;;;;;;;15.73;79.48;95437.00;5031902;28;20102;-78
2023/06/01 05:01:18;;;;;;;31.27;17.95;;;;;;;15.73;79.94;95420.97;5013997;28;20133;-79
2023/06/01 05:03:47;;;;;;;35.55;21.38;;;;;;;15.96;80.51;95451.22;5005046;28;20535;-78
2023/06/01 05:06:13;;;;;;;47.38;21.38;;;;;;;15.93;81.24;95448.38;5032146;28;20120;-80
2023/06/01 05:08:41;;;;;;;30.65;17.85;;;;;;;15.97;80.17;95457.38;5023637;28;20032;-80
2023/06/01 05:11:09;;;;;;;31.33;18.58;;;;;;;16.13;78.99;95459.44;5032953;28;20052;-85
2023/06/01 05:13:35;;;;;;;35.50;20.70;;;;;;;16.11;79.47;95455.47;5025434;28;20037;-81
2023/06/01 05:16:02;;;;;;;35.03;20.48;;;;;;;15.74;79.52;95395.81;5022688;28;20131;-81
2023/06/01 05:18:28;;;;;;;35.08;22.00;;;;;;;16.18;79.50;95455.84;5038340;28;20092;-81
2023/06/01 05:20:53;;;;;;;41.53;22.35;;;;;;;16.16;79.38;95428.59;5023128;28;20041;-80
2023/06/01 05:23:19;;;;;;;38.38;21.17;;;;;;;16.34;79.53;95445.59;5044170;28;20036;-79
2023/06/01 05:25:44;;;;;;;36.22;20.40;;;;;;;16.40;79.33;95436.38;5039753;28;20047;-79
2023/06/01 05:28:10;;;;;;;37.33;21.45;;;;;;;16.51;79.51;95448.41;5040962;28;20045;-80
2023/06/01 05:30:35;;;;;;;32.83;21.60;;;;;;;16.66;79.61;95456.09;5026079;28;20103;-80
2023/06/01 05:33:00;;;;;;;38.75;21.58;;;;;;;16.50;79.28;95412.00;5026200;28;20056;-80
2023/06/01 05:35:26;;;;;;;40.40;22.63;;;;;;;16.31;79.01;95420.22;5041635;28;20087;-80
2023/06/01 05:37:51;;;;;;;31.85;19.58;;;;;;;16.44;78.92;95413.22;5039153;28;20567;-80
2023/06/01 05:40:17;;;;;;;36.15;22.42;;;;;;;16.67;78.72;95422.06;5022225;28;20487;-80
2023/06/01 05:42:42;;;;;;;36.88;20.92;;;;;;;16.80;78.40;95437.28;5033975;28;20050;-81
2023/06/01 05:45:09;;;;;;;35.00;21.63;;;;;;;16.77;78.15;95419.94;5025812;28;20032;-80
2023/06/01 05:47:35;;;;;;;38.28;21.00;;;;;;;16.50;77.73;95377.22;5023093;28;20041;-81
2023/06/01 05:50:00;;;;;;;37.80;20.88;;;;;;;16.85;77.57;95427.25;5021905;28;20049;-80
2023/06/01 05:52:26;;;;;;;35.88;19.38;;;;;;;17.00;77.21;95442.13;5016198;28;20044;-82
2023/06/01 05:54:53;;;;;;;36.88;20.23;;;;;;;16.94;76.60;95437.97;5018276;28;20040;-78
2023/06/01 05:57:20;;;;;;;39.70;23.05;;;;;;;17.03;76.54;95436.16;5032437;28;20032;-78
2023/06/01 05:59:46;;;;;;;41.85;22.20;;;;;;;16.97;76.14;95418.63;5006033;28;20056;-78
2023/06/01 06:02:13;;;;;;;40.35;24.40;;;;;;;17.13;75.97;95424.38;5016354;28;20063;-84
2023/06/01 06:04:39;;;;;;;41.00;24.10;;;;;;;17.28;76.20;95432.03;5032658;28;20514;-80
2023/06/01 06:07:05;;;;;;;47.70;24.52;;;;;;;17.42;76.53;95456.03;5031584;28;20227;-80
2023/06/01 06:09:31;;;;;;;52.70;26.85;;;;;;;17.31;76.24;95444.81;5015637;28;20029;-80
2023/06/01 06:11:56;;;;;;;48.40;28.35;;;;;;;17.40;76.94;95432.22;5035709;28;20037;-80
2023/06/01 06:14:22;;;;;;;47.35;27.00;;;;;;;17.41;76.70;95454.44;5022376;28;20610;-78
2023/06/01 06:16:47;;;;;;;46.67;28.73;;;;;;;17.26;76.78;95453.75;5039120;28;20060;-79
2023/06/01 06:19:15;;;;;;;48.95;27.27;;;;;;;17.42;76.92;95458.72;5020042;28;20025;-79
2023/06/01 06:21:41;;;;;;;49.33;29.05;;;;;;;17.20;76.56;95427.41;5022741;28;20044;-77
2023/06/01 06:24:06;;;;;;;54.90;28.85;;;;;;;17.24;76.70;95433.75;5025615;28;20033;-79
2023/06/01 06:26:32;;;;;;;50.70;29.10;;;;;;;17.19;76.88;95421.25;5034498;28;20028;-79
2023/06/01 06:28:57;;;;;;;49.53;28.98;;;;;;;17.48;76.36;95458.25;5044276;28;20048;-79
2023/06/01 06:31:23;;;;;;;53.50;28.92;;;;;;;17.54;76.24;95458.94;5018106;28;20098;-78
2023/06/01 06:33:49;;;;;;;56.47;30.38;;;;;;;17.58;76.00;95460.69;5024420;28;20091;-79
2023/06/01 06:36:16;;;;;;;40.03;26.48;;;;;;;17.50;76.11;95452.59;5008845;28;20141;-79
2023/06/01 06:38:41;;;;;;;57.28;30.63;;;;;;;17.26;76.24;95429.63;5020322;28;20070;-78
2023/06/01 06:41:06;;;;;;;52.22;30.67;;;;;;;17.34;76.07;95428.09;5039576;28;20574;-76
2023/06/01 06:43:32;;;;;;;55.28;31.67;;;;;;;17.30;75.95;95427.16;5026234;28;20024;-80
2023/06/01 06:45:57;;;;;;;62.42;38.83;;;;;;;17.52;76.45;95459.25;5021826;28;20029;-79
2023/06/01 06:48:23;;;;;;;66.75;41.20;;;;;;;17.38;76.86;95458.56;5020864;28;20037;-78
2023/06/01 06:50:48;;;;;;;70.20;42.28;;;;;;;17.20;76.83;95414.78;5026285;28;20067;-81
2023/06/01 06:53:13;;;;;;;66.03;42.22;;;;;;;17.29;76.81;95426.34;5037750;28;23781;-78
2023/06/01 06:55:39;;;;;;;72.28;41.80;;;;;;;17.50;76.14;95444.56;5036556;28;20174;-79
2023/06/01 06:58:04;;;;;;;69.63;40.70;;;;;;;17.45;76.34;95418.69;5013360;28;20061;-80
2023/06/01 07:00:30;;;;;;;64.45;41.22;;;;;;;17.77;75.60;95449.72;5026772;28;20037;-77
2023/06/01 07:02:56;;;;;;;71.82;41.00;;;;;;;17.43;75.75;95415.50;5021346;28;20051;-78
2023/06/01 07:05:21;;;;;;;72.03;43.22;;;;;;;17.41;75.87;95424.97;5040311;28;20107;-78
2023/06/01 07:07:47;;;;;;;72.82;45.53;;;;;;;17.67;76.54;95456.16;5036721;28;20037;-78
2023/06/01 07:10:12;;;;;;;83.03;53.22;;;;;;;17.51;76.17;95397.88;5034641;28;20041;-80
2023/06/01 07:12:38;;;;;;;101.57;53.60;;;;;;;17.72;76.99;95450.66;5032322;28;20036;-79
2023/06/01 07:15:05;;;;;;;82.50;45.88;;;;;;;17.67;76.47;95453.50;5022253;28;20103;-78
2023/06/01 07:17:30;;;;;;;76.95;44.58;;;;;;;17.45;76.52;95418.69;5015576;28;20132;-80
2023/06/01 07:19:56;;;;;;;68.57;41.90;;;;;;;17.64;76.17;95415.75;5026395;28;20051;-78
2023/06/01 07:22:21;;;;;;;67.85;41.78;;;;;;;17.59;76.14;95403.25;5025892;28;20033;-79
2023/06/01 07:24:47;;;;;;;78.88;45.13;;;;;;;17.85;75.88;95424.03;5041705;28;20033;-78
2023/06/01 07:27:13;;;;;;;77.40;44.53;;;;;;;17.88;75.97;95448.31;5028678;28;20144;-79
2023/06/01 07:29:39;;;;;;;83.63;47.70;;;;;;;18.01;75.98;95438.56;5018357;28;20060;-77
2023/06/01 07:32:06;;;;;;;71.75;43.42;;;;;;;17.79;77.04;95436.78;5041335;28;20125;-81
2023/06/01 07:34:33;;;;;;;76.05;44.55;;;;;;;17.72;76.03;95429.19;5020555;28;20389;-81
2023/06/01 07:36:59;;;;;;;74.25;44.90;;;;;;;17.68;75.86;95392.59;5032674;28;20512;-79
2023/06/01 07:39:25;;;;;;;100.43;52.72;;;;;;;17.83;75.34;95399.41;5020726;28;20033;-80
2023/06/01 07:41:53;;;;;;;89.07;47.80;;;;;;;18.20;74.86;95425.63;5022231;28;20628;-76
2023/06/01 07:44:20;;;;;;;83.55;47.28;;;;;;;18.39;74.24;95423.41;5037785;28;20112;-77
2023/06/01 07:46:45;;;;;;;75.63;45.42;;;;;;;18.22;74.69;95410.00;5042245;28;20041;-78
2023/06/01 07:49:13;;;;;;;88.43;46.95;;;;;;;18.34;74.32;95423.59;5025319;28;20070;-77
2023/06/01 07:51:40;;;;;;;74.45;43.05;;;;;;;18.32;74.17;95398.16;5043490;28;20121;-77
2023/06/01 07:54:05;;;;;;;72.95;42.47;;;;;;;18.55;73.43;95415.66;5023699;28;20592;-77
2023/06/01 07:56:31;;;;;;;72.10;41.15;;;;;;;18.53;73.53;95415.22;5026525;28;20037;-77
2023/06/01 07:58:56;;;;;;;70.90;36.70;;;;;;;18.47;73.85;95398.44;5040599;28;20095;-77
2023/06/01 08:01:22;;;;;;;59.17;36.25;;;;;;;18.24;72.50;95313.81;5026735;28;20060;-81
2023/06/01 08:03:47;;;;;;;62.10;37.25;;;;;;;18.76;71.63;95376.34;5026565;28;20063;-78
2023/06/01 08:06:14;;;;;;;65.82;37.03;;;;;;;19.08;71.73;95399.13;5006571;28;20035;-76
2023/06/01 08:08:40;;;;;;;62.83;35.05;;;;;;;19.02;70.06;95375.44;5024522;28;20456;-76
2023/06/01 08:11:07;;;;;;;69.30;36.60;;;;;;;19.12;70.99;95412.75;5040753;28;20079;-77
2023/06/01 08:13:35;;;;;;;60.30;34.75;;;;;;;19.07;70.61;95394.88;5023183;28;20427;-77
2023/06/01 08:16:01;;;;;;;64.70;34.05;;;;;;;19.42;70.31;95414.38;5040202;28;20037;-78
2023/06/01 08:18:27;;;;;;;50.47;32.08;;;;;;;19.44;69.22;95396.00;5021301;28;20037;-78
2023/06/01 08:20:53;;;;;;;49.50;30.00;;;;;;;19.27;68.04;95348.47;5021208;28;20032;-82
2023/06/01 08:23:22;;;;;;;50.17;28.83;;;;;;;19.54;67.15;95382.19;5021082;28;20657;-79
2023/06/01 08:25:48;;;;;;;51.58;28.45;;;;;;;19.90;67.28;95403.22;5036645;28;20150;-79
2023/06/01 08:28:13;;;;;;;46.78;28.05;;;;;;;19.64;67.93;95379.16;5028607;28;20029;-79
2023/06/01 08:30:40;;;;;;;50.38;29.25;;;;;;;19.87;67.95;95379.63;5038861;28;20114;-78
2023/06/01 08:33:06;;;;;;;58.83;30.55;;;;;;;19.60;67.58;95355.94;5021063;28;20053;-79
2023/06/01 08:35:33;;;;;;;61.22;32.85;;;;;;;19.78;67.43;95388.88;5021608;28;20033;-77
2023/06/01 08:38:03;;;;;;;52.03;29.52;;;;;;;19.95;66.80;95367.22;5025886;28;20037;-78
2023/06/01 08:40:31;;;;;;;46.83;26.65;;;;;;;19.78;66.26;95335.84;5042892;28;20041;-79
2023/06/01 08:43:18;;;;;;;54.08;31.33;;;;;;;20.05;66.35;95372.22;5040740;28;20557;-80
2023/06/01 08:45:44;;;;;;;56.70;31.40;;;;;;;20.04;67.41;95390.28;5022960;28;20049;-78
2023/06/01 08:48:17;;;;;;;55.47;31.08;;;;;;;20.11;66.58;95389.75;5021261;28;20048;-80
2023/06/01 08:50:47;;;;;;;50.25;30.30;;;;;;;20.21;65.86;95367.03;5020411;28;20791;-79
2023/06/01 08:53:13;;;;;;;56.58;29.95;;;;;;;20.25;65.85;95349.88;5019857;28;20044;-77
2023/06/01 08:55:39;;;;;;;50.72;28.20;;;;;;;20.52;65.42;95370.09;5043475;28;20033;-78
2023/06/01 08:58:05;;;;;;;52.15;26.33;;;;;;;20.07;64.34;95301.88;5023398;28;20063;-79
2023/06/01 09:00:32;;;;;;;45.03;26.60;;;;;;;20.56;64.07;95362.94;5024705;28;20400;-78
2023/06/01 09:02:59;;;;;;;45.08;23.17;;;;;;;20.31;64.66;95318.16;5016654;28;20033;-77
2023/06/01 09:05:25;;;;;;;43.53;23.30;;;;;;;20.12;65.14;95278.25;5037644;28;20656;-77
2023/06/01 09:07:50;;;;;;;43.15;26.75;;;;;;;20.74;64.49;95356.28;5039042;28;20051;-77
2023/06/01 09:10:23;;;;;;;45.42;26.95;;;;;;;20.54;64.10;95330.16;5039659;28;20474;-78
2023/06/01 09:12:53;;;;;;;42.85;24.45;;;;;;;20.71;64.15;95329.19;5022112;28;20485;-77
2023/06/01 09:15:19;;;;;;;41.88;23.58;;;;;;;20.87;63.57;95321.25;5038061;28;20033;-78
2023/06/01 09:17:47;;;;;;;47.08;23.80;;;;;;;20.86;62.62;95320.47;5040064;28;20047;-79
2023/06/01 09:20:24;;;;;;;39.05;21.27;;;;;;;20.96;63.06;95303.06;5023956;28;20029;-79
2023/06/01 09:22:49;;;;;;;39.90;20.77;;;;;;;21.11;61.66;95323.97;5037057;28;20037;-79
2023/06/01 09:25:15;;;;;;;31.25;20.80;;;;;;;21.35;60.73;95352.91;5013988;28;20032;-78
2023/06/01 09:27:51;;;;;;;31.67;19.10;;;;;;;21.42;61.86;95350.41;5032359;28;20029;-78
2023/06/01 09:30:19;;;;;;;40.15;21.30;;;;;;;21.39;60.62;95359.19;5015393;28;20041;-76
2023/06/01 09:32:50;;;;;;;35.35;22.40;;;;;;;21.39;59.74;95349.19;5019853;28;20037;-80
2023/06/01 09:35:16;;;;;;;36.53;21.58;;;;;;;21.60;59.65;95342.84;5020787;28;20036;-78
2023/06/01 09:37:55;;;;;;;38.88;22.23;;;;;;;21.62;61.58;95329.81;5022755;28;20141;-80
2023/06/01 09:40:21;;;;;;;32.75;18.33;;;;;;;21.59;61.59;95287.34;5031175;28;20033;-76
2023/06/01 09:42:49;;;;;;;36.60;19.70;;;;;;;22.43;59.87;95326.78;5011328;28;20064;-76
2023/06/01 09:45:16;;;;;;;31.70;16.70;;;;;;;23.06;54.23;95326.91;5026474;28;20689;-76
2023/06/01 09:47:42;;;;;;;31.65;14.63;;;;;;;23.74;52.08;95273.22;5030813;28;20404;-77
2023/06/01 09:50:07;;;;;;;21.73;12.63;;;;;;;24.88;49.56;95313.41;5015274;28;20033;-76
2023/06/01 09:52:32;;;;;;;27.45;13.15;;;;;;;25.22;46.48;95251.97;5016998;28;20040;-77
2023/06/01 09:55:06;;;;;;;22.10;12.43;;;;;;;26.08;44.18;95279.19;5016319;28;20039;-78
2023/06/01 09:57:33;;;;;;;22.23;11.30;;;;;;;27.27;42.03;95286.25;5021663;28;20052;-77
2023/06/01 10:00:01;;;;;;;17.20;10.77;;;;;;;28.01;41.69;95275.84;5020805;28;20056;-76
2023/06/01 10:02:31;;;;;;;19.85;10.02;;;;;;;28.17;38.84;95269.31;5035941;28;20151;-77
2023/06/01 10:04:59;;;;;;;18.90;9.68;;;;;;;28.28;38.71;95256.50;5017635;28;20060;-77
2023/06/01 10:07:30;;;;;;;18.73;11.80;;;;;;;28.13;38.69;95258.38;5021292;28;20121;-76
2023/06/01 10:09:58;;;;;;;17.15;9.00;;;;;;;27.80;37.31;95264.84;5035629;28;20094;-77
2023/06/01 10:12:25;;;;;;;14.73;8.60;;;;;;;27.54;37.22;95265.09;5032636;28;20147;-78
2023/06/01 10:14:51;;;;;;;20.75;7.75;;;;;;;26.87;38.15;95290.56;5033735;28;20041;-78
2023/06/01 10:17:20;;;;;;;18.17;7.25;;;;;;;25.31;39.05;95181.94;5016727;28;20670;-77
2023/06/01 10:19:45;;;;;;;11.13;7.45;;;;;;;25.94;38.99;95277.06;5018732;28;20521;-77
2023/06/01 10:22:12;;;;;;;12.32;7.78;;;;;;;25.94;39.64;95287.94;5023813;28;20068;-77
2023/06/01 10:24:41;;;;;;;12.25;7.28;;;;;;;25.77;40.41;95279.56;5006178;28;20139;-78
2023/06/01 10:27:15;;;;;;;13.20;7.30;;;;;;;25.60;41.27;95289.81;5007065;28;20029;-79
2023/06/01 10:29:41;;;;;;;17.23;7.45;;;;;;;25.23;41.22;95276.03;5009111;28;20045;-77
2023/06/01 10:32:45;;;;;;;23.77;9.15;;;;;;;24.66;44.89;95287.03;5030900;28;20048;-75
2023/06/01 10:35:31;;;;;;;26.23;9.10;;;;;;;23.71;44.27;95187.31;5029793;28;20039;-75
2023/06/01 10:38:06;;;;;;;11.60;6.35;;;;;;;23.69;44.35;95292.47;5013669;28;20033;-76
2023/06/01 10:40:41;;;;;;;14.40;6.55;;;;;;;22.97;43.37;95256.75;5037309;28;20051;-76
2023/06/01 10:43:08;;;;;;;8.07;4.80;;;;;;;22.63;43.00;95270.97;5019045;28;20044;-77
2023/06/01 10:45:33;;;;;;;9.77;5.82;;;;;;;22.64;43.37;95278.72;5018594;28;20036;-77
2023/06/01 10:47:59;;;;;;;12.73;5.40;;;;;;;22.10;42.48;95239.84;5015767;28;20037;-76
2023/06/01 10:50:25;;;;;;;12.35;5.20;;;;;;;21.89;42.74;95254.28;5037556;28;20029;-76
2023/06/01 10:52:53;;;;;;;11.48;6.05;;;;;;;21.85;44.76;95261.50;5017852;28;20534;-77
2023/06/01 10:55:22;;;;;;;9.02;5.50;;;;;;;21.91;45.50;95279.03;5042278;28;20056;-77
2023/06/01 10:57:47;;;;;;;7.95;5.03;;;;;;;21.51;45.30;95246.63;5043246;28;20043;-76
2023/06/01 11:00:22;;;;;;;12.02;6.35;;;;;;;21.65;46.24;95259.78;5034990;28;20037;-77
2023/06/01 11:02:55;;;;;;;14.25;6.75;;;;;;;21.61;46.13;95253.47;5023156;28;20033;-77
2023/06/01 11:05:36;;;;;;;17.25;7.00;;;;;;;21.78;46.96;95253.19;5018215;28;20051;-78
2023/06/01 11:08:01;;;;;;;9.88;6.53;;;;;;;21.66;47.02;95247.06;5023892;28;20057;-76
2023/06/01 11:11:02;;;;;;;15.20;6.63;;;;;;;21.75;47.38;95263.88;5042980;28;20033;-77
2023/06/01 11:13:30;;;;;;;17.95;7.03;;;;;;;21.34;47.45;95190.25;5041966;28;20041;-77
2023/06/01 11:16:04;;;;;;;16.48;7.03;;;;;;;21.80;46.93;95250.94;5026170;28;20036;-77
2023/06/01 11:18:41;;;;;;;13.15;6.45;;;;;;;22.12;46.34;95241.06;5025497;28;20104;-77
2023/06/01 11:21:09;;;;;;;21.05;6.88;;;;;;;22.15;44.53;95212.56;5017758;28;20037;-76
2023/06/01 11:23:36;;;;;;;8.50;5.22;;;;;;;22.12;43.04;95232.19;5040398;28;20043;-76